createdAt,value
2022-11-24T00:00:33.653Z,73.00
2022-11-24T00:03:05.487Z,73.00
2022-11-24T00:05:41.308Z,72.90
2022-11-24T00:08:10.349Z,72.80
2022-11-24T00:10:40.821Z,72.40
2022-11-24T00:13:08.954Z,71.80
2022-11-24T00:15:38.513Z,71.50
2022-11-24T00:18:07.844Z,71.30
2022-11-24T00:20:37.514Z,71.10
2022-11-24T00:23:08.020Z,71.00
2022-11-24T00:25:36.249Z,70.90
2022-11-24T00:28:04.410Z,70.80
2022-11-24T00:30:34.982Z,70.90
2022-11-24T00:33:06.973Z,70.90
2022-11-24T00:35:37.222Z,70.90
2022-11-24T00:38:07.784Z,71.10
2022-11-24T00:40:35.915Z,71.30
2022-11-24T00:43:06.626Z,71.40
2022-11-24T00:45:36.328Z,71.50
2022-11-24T00:48:07.970Z,71.70
2022-11-24T00:50:37.336Z,71.70
2022-11-24T00:53:05.975Z,71.70
2022-11-24T00:55:49.455Z,71.70
2022-11-24T00:58:18.990Z,71.70
2022-11-24T01:00:50.889Z,71.50
2022-11-24T01:03:23.254Z,71.60
2022-11-24T01:05:51.339Z,72.00
2022-11-24T01:08:23.669Z,72.00
2022-11-24T01:10:55.421Z,71.90
2022-11-24T01:13:24.915Z,71.90
2022-11-24T01:15:55.796Z,72.00
2022-11-24T01:18:28.156Z,72.00
2022-11-24T01:20:56.604Z,72.10
2022-11-24T01:23:31.073Z,72.10
2022-11-24T01:26:01.004Z,72.00
2022-11-24T01:28:32.217Z,72.10
2022-11-24T01:31:05.228Z,72.20
2022-11-24T01:33:39.752Z,72.30
2022-11-24T01:36:08.502Z,72.20
2022-11-24T01:38:39.949Z,72.20
2022-11-24T01:41:13.149Z,72.20
2022-11-24T01:43:41.678Z,72.00
2022-11-24T01:46:19.621Z,72.00
2022-11-24T01:48:55.985Z,72.00
2022-11-24T01:51:30.628Z,71.90
2022-11-24T01:54:03.239Z,71.80
2022-11-24T01:56:34.576Z,71.30
2022-11-24T01:59:06.926Z,71.30
2022-11-24T02:01:35.557Z,71.20
2022-11-24T02:04:13.169Z,71.30
2022-11-24T02:06:45.258Z,71.00
2022-11-24T02:09:25.133Z,71.10
2022-11-24T02:11:57.543Z,71.20
2022-11-24T02:14:30.668Z,71.40
2022-11-24T02:17:01.283Z,71.30
2022-11-24T02:19:45.960Z,71.30
2022-11-24T02:22:26.726Z,71.20
2022-11-24T02:25:08.111Z,71.20
2022-11-24T02:27:54.249Z,71.20
2022-11-24T02:30:24.458Z,71.10
2022-11-24T02:33:01.907Z,71.10
2022-11-24T02:35:30.749Z,71.00
2022-11-24T02:38:00.093Z,71.00
2022-11-24T02:40:31.277Z,70.80
2022-11-24T02:43:07.384Z,70.80
2022-11-24T02:45:35.797Z,70.80
2022-11-24T02:48:06.141Z,70.80
2022-11-24T02:50:35.761Z,70.70
2022-11-24T02:53:06.406Z,70.60
2022-11-24T02:55:37.064Z,70.60
2022-11-24T02:58:25.283Z,70.60
2022-11-24T03:00:55.247Z,70.80
2022-11-24T03:03:23.956Z,70.90
2022-11-24T03:05:53.394Z,70.90
2022-11-24T03:08:21.640Z,70.90
2022-11-24T03:13:36.437Z,70.90
2022-11-24T03:16:07.854Z,70.90
2022-11-24T03:18:37.296Z,71.10
2022-11-24T03:21:07.460Z,71.30
2022-11-24T03:23:38.213Z,71.30
2022-11-24T03:26:14.586Z,71.50
2022-11-24T03:28:45.832Z,71.50
2022-11-24T03:31:17.318Z,71.50
2022-11-24T03:33:45.559Z,71.40
2022-11-24T03:36:13.722Z,71.40
2022-11-24T03:41:33.589Z,71.50
2022-11-24T03:44:21.470Z,71.40
2022-11-24T03:46:52.060Z,71.30
2022-11-24T03:49:22.507Z,71.30
2022-11-24T03:54:36.126Z,71.30
2022-11-24T03:57:06.464Z,71.40
2022-11-24T03:59:37.447Z,71.30
2022-11-24T04:02:08.415Z,71.10
2022-11-24T04:04:38.842Z,70.90
2022-11-24T04:07:15.600Z,70.90
2022-11-24T04:09:48.429Z,71.00
2022-11-24T04:12:37.269Z,71.00
2022-11-24T04:15:10.520Z,71.00
2022-11-24T04:17:41.493Z,71.00
2022-11-24T04:20:19.750Z,71.00
2022-11-24T04:22:50.538Z,70.90
2022-11-24T04:25:21.120Z,71.20
2022-11-24T04:27:53.601Z,71.20
2022-11-24T04:30:30.821Z,71.40
2022-11-24T04:33:02.399Z,71.60
2022-11-24T04:35:31.679Z,72.00
2022-11-24T04:38:06.780Z,72.00
2022-11-24T04:40:37.337Z,72.50
2022-11-24T04:43:05.459Z,72.60
2022-11-24T04:45:37.433Z,72.90
2022-11-24T04:48:14.533Z,73.00
2022-11-24T04:50:45.395Z,73.00
2022-11-24T04:53:15.939Z,73.00
2022-11-24T04:55:47.552Z,72.80
2022-11-24T04:58:17.815Z,72.90
2022-11-24T05:00:57.115Z,73.00
2022-11-24T05:03:26.897Z,73.00
2022-11-24T05:05:57.556Z,73.10
2022-11-24T05:08:29.309Z,73.00
2022-11-24T05:10:57.512Z,73.10
2022-11-24T05:13:26.103Z,73.10
2022-11-24T05:15:56.907Z,72.90
2022-11-24T05:18:28.767Z,72.80
2022-11-24T05:20:59.774Z,72.90
2022-11-24T05:23:29.326Z,72.70
2022-11-24T05:26:02.127Z,72.80
2022-11-24T05:28:36.178Z,72.80
2022-11-24T05:31:06.153Z,72.60
2022-11-24T05:33:35.013Z,72.00
2022-11-24T05:36:05.302Z,71.60
2022-11-24T05:38:35.395Z,71.00
2022-11-24T05:41:06.454Z,70.80
2022-11-24T05:43:45.265Z,70.50
2022-11-24T05:46:14.852Z,70.80
2022-11-24T05:48:46.109Z,71.00
2022-11-24T05:51:17.118Z,71.30
2022-11-24T05:53:45.447Z,71.40
2022-11-24T05:56:14.770Z,71.40
2022-11-24T05:58:45.547Z,71.40
2022-11-24T06:01:16.697Z,71.50
2022-11-24T06:03:50.751Z,71.50
2022-11-24T06:06:21.758Z,71.60
2022-11-24T06:08:52.215Z,71.70
2022-11-24T06:11:20.701Z,71.70
2022-11-24T06:13:50.380Z,71.80
2022-11-24T06:16:20.163Z,72.10
2022-11-24T06:18:48.526Z,72.60
2022-11-24T06:21:17.212Z,72.90
2022-11-24T06:23:49.645Z,73.10
2022-11-24T06:26:19.016Z,73.20
2022-11-24T06:28:48.205Z,73.30
2022-11-24T06:31:16.368Z,73.30
2022-11-24T06:33:46.995Z,73.60
2022-11-24T06:36:16.660Z,73.70
2022-11-24T06:38:44.797Z,73.60
2022-11-24T06:41:19.689Z,73.70
2022-11-24T06:43:53.771Z,73.90
2022-11-24T06:46:23.166Z,73.80
2022-11-24T06:49:16.086Z,73.70
2022-11-24T06:51:52.852Z,73.50
2022-11-24T06:54:24.549Z,73.40
2022-11-24T06:56:57.990Z,73.40
2022-11-24T06:59:33.192Z,73.50
2022-11-24T07:02:01.327Z,73.80
2022-11-24T07:04:32.328Z,74.00
2022-11-24T07:07:04.807Z,74.50
2022-11-24T07:09:35.177Z,74.60
2022-11-24T07:12:06.027Z,75.00
2022-11-24T07:14:36.052Z,75.00
2022-11-24T07:17:05.093Z,75.20
2022-11-24T07:19:52.459Z,75.50
2022-11-24T07:22:21.093Z,75.50
2022-11-24T07:24:51.900Z,75.20
2022-11-24T07:27:22.525Z,75.50
2022-11-24T07:29:50.924Z,75.40
2022-11-24T07:33:06.621Z,75.40
2022-11-24T07:35:56.883Z,75.30
2022-11-24T07:39:26.603Z,75.50
2022-11-24T07:49:26.584Z,75.10
2022-11-24T07:52:25.030Z,75.10
2022-11-24T08:02:20.409Z,75.10
2022-11-24T08:04:50.627Z,74.80
2022-11-24T08:07:21.269Z,74.80
2022-11-24T08:09:52.238Z,74.50
2022-11-24T08:12:24.542Z,74.50
2022-11-24T08:14:53.754Z,74.50
2022-11-24T08:17:24.494Z,74.80
2022-11-24T08:19:56.464Z,74.70
2022-11-24T08:22:27.252Z,74.30
2022-11-24T08:24:56.437Z,74.50
2022-11-24T08:27:27.808Z,74.30
2022-11-24T08:29:56.429Z,74.50
2022-11-24T08:32:25.711Z,74.30
2022-11-24T08:35:13.043Z,74.40
2022-11-24T08:37:44.822Z,74.50
2022-11-24T08:40:14.066Z,74.40
2022-11-24T08:42:44.579Z,74.10
2022-11-24T08:45:21.048Z,74.00
2022-11-24T08:47:54.383Z,74.00
2022-11-24T08:50:22.826Z,73.90
2022-11-24T08:52:53.239Z,73.70
2022-11-24T08:55:22.265Z,73.40
2022-11-24T08:57:50.457Z,73.30
2022-11-24T09:00:22.606Z,72.90
2022-11-24T09:02:57.707Z,73.10
2022-11-24T09:05:50.623Z,72.90
2022-11-24T09:08:15.715Z,72.70
2022-11-24T09:10:44.052Z,72.90
2022-11-24T09:13:12.190Z,72.70
2022-11-24T09:15:40.341Z,72.80
2022-11-24T09:18:08.507Z,72.80
2022-11-24T09:20:36.667Z,72.90
2022-11-24T09:23:04.841Z,72.90
2022-11-24T09:25:34.328Z,72.60
2022-11-24T09:28:02.573Z,72.40
2022-11-24T09:30:30.843Z,72.20
2022-11-24T09:32:59.234Z,72.40
2022-11-24T09:35:27.404Z,72.00
2022-11-24T09:37:55.561Z,72.00
2022-11-24T09:40:24.287Z,71.70
2022-11-24T09:43:02.048Z,71.70
2022-11-24T09:46:05.139Z,71.50
2022-11-24T09:48:37.768Z,71.30
2022-11-24T09:51:06.618Z,71.10
2022-11-24T09:53:42.573Z,70.50
2022-11-24T09:56:19.772Z,70.50
2022-11-24T09:58:51.781Z,70.50
2022-11-24T10:01:21.535Z,70.20
2022-11-24T10:03:51.868Z,70.10
2022-11-24T10:06:25.954Z,69.60
2022-11-24T10:09:20.769Z,69.50
2022-11-24T10:12:00.139Z,69.60
2022-11-24T10:15:15.997Z,69.40
2022-11-24T10:18:23.164Z,69.20
2022-11-24T10:20:58.078Z,69.00
2022-11-24T10:23:40.926Z,68.90
2022-11-24T10:26:17.009Z,68.80
2022-11-24T10:28:50.429Z,68.90
2022-11-24T10:31:25.207Z,68.60
2022-11-24T10:33:55.395Z,68.50
2022-11-24T10:36:33.247Z,68.20
2022-11-24T10:39:07.256Z,68.00
2022-11-24T10:41:43.511Z,68.10
2022-11-24T10:44:15.652Z,67.80
2022-11-24T10:46:44.097Z,67.80
2022-11-24T10:49:20.280Z,67.60
2022-11-24T10:51:59.535Z,67.20
2022-11-24T10:54:27.641Z,67.30
2022-11-24T10:56:56.438Z,66.60
2022-11-24T10:59:33.764Z,66.80
2022-11-24T11:02:02.695Z,66.60
2022-11-24T11:04:34.180Z,66.60
2022-11-24T11:07:26.765Z,66.60
2022-11-24T11:10:20.588Z,65.60
2022-11-24T11:12:48.886Z,65.70
2022-11-24T11:15:30.038Z,66.00
2022-11-24T11:18:00.177Z,65.70
2022-11-24T11:20:32.338Z,65.50
2022-11-24T11:23:04.348Z,65.40
2022-11-24T11:25:35.158Z,65.20
2022-11-24T11:28:23.409Z,64.80
2022-11-24T11:31:20.006Z,64.80
2022-11-24T11:34:03.792Z,64.10
2022-11-24T11:36:34.686Z,64.20
2022-11-24T11:39:05.051Z,64.50
2022-11-24T11:41:37.241Z,64.20
2022-11-24T11:44:22.802Z,64.20
2022-11-24T11:46:51.231Z,64.20
2022-11-24T11:49:19.436Z,64.00
2022-11-24T11:52:04.924Z,63.80
2022-11-24T11:54:52.939Z,63.40
2022-11-24T11:57:32.792Z,63.00
2022-11-24T12:00:11.053Z,63.00
2022-11-24T12:03:06.594Z,62.90
2022-11-24T12:05:48.600Z,62.00
2022-11-24T12:08:49.607Z,62.50
2022-11-24T12:11:28.039Z,62.50
2022-11-24T12:14:10.557Z,62.40
2022-11-24T12:16:46.755Z,62.30
2022-11-24T12:19:34.091Z,62.10
2022-11-24T12:22:10.520Z,61.70
2022-11-24T12:24:51.072Z,61.60
2022-11-24T12:27:29.280Z,61.60
2022-11-24T12:30:06.806Z,61.70
2022-11-24T12:32:55.786Z,61.80
2022-11-24T12:35:30.764Z,61.80
2022-11-24T12:38:10.496Z,61.50
2022-11-24T12:41:18.343Z,61.40
2022-11-24T12:43:52.885Z,61.20
2022-11-24T12:46:26.721Z,61.30
2022-11-24T12:49:05.584Z,60.60
2022-11-24T12:51:38.265Z,60.70
2022-11-24T12:54:22.258Z,61.30
2022-11-24T12:56:57.169Z,61.20
2022-11-24T12:59:34.747Z,61.00
2022-11-24T13:02:15.962Z,60.60
2022-11-24T13:04:49.448Z,60.50
2022-11-24T13:07:22.285Z,60.00
2022-11-24T13:10:54.054Z,60.30
2022-11-24T13:13:18.905Z,60.10
2022-11-24T13:16:35.173Z,60.00
2022-11-24T13:19:03.968Z,60.00
2022-11-24T13:21:51.875Z,60.10
2022-11-24T13:24:26.597Z,59.70
2022-11-24T13:26:56.676Z,60.10
2022-11-24T13:29:35.485Z,60.00
2022-11-24T13:32:52.246Z,59.80
2022-11-24T13:35:20.481Z,59.30
2022-11-24T13:37:51.742Z,59.30
2022-11-24T13:40:49.842Z,58.90
2022-11-24T13:43:30.884Z,59.30
2022-11-24T13:46:00.354Z,59.20
2022-11-24T13:49:02.229Z,59.30
2022-11-24T13:51:30.454Z,59.50
2022-11-24T13:54:00.986Z,59.30
2022-11-24T13:56:31.780Z,59.60
2022-11-24T13:59:02.953Z,59.60
2022-11-24T14:01:35.473Z,59.90
2022-11-24T14:04:31.120Z,59.60
2022-11-24T14:07:08.222Z,59.30
2022-11-24T14:09:41.823Z,59.30
2022-11-24T14:12:15.715Z,58.70
2022-11-24T14:14:45.587Z,58.80
2022-11-24T14:17:22.763Z,58.60
2022-11-24T14:19:52.844Z,58.60
2022-11-24T14:22:23.304Z,58.60
2022-11-24T14:24:56.438Z,59.00
2022-11-24T14:27:30.886Z,59.40
2022-11-24T14:30:00.909Z,60.00
2022-11-24T14:32:30.871Z,60.10
2022-11-24T14:34:59.072Z,60.50
2022-11-24T14:37:27.277Z,60.70
2022-11-24T14:39:55.428Z,61.00
2022-11-24T14:42:26.038Z,61.00
2022-11-24T14:44:56.685Z,61.10
2022-11-24T14:47:31.748Z,61.10
2022-11-24T14:50:10.393Z,61.00
2022-11-24T14:52:46.411Z,61.10
2022-11-24T14:55:26.866Z,61.10
2022-11-24T14:57:55.260Z,61.20
2022-11-24T15:00:29.117Z,61.50
2022-11-24T15:03:14.407Z,61.50
2022-11-24T15:05:55.749Z,62.00
2022-11-24T15:08:25.315Z,62.40
2022-11-24T15:10:59.411Z,62.80
2022-11-24T15:13:34.961Z,63.00
2022-11-24T15:16:05.864Z,63.70
2022-11-24T15:18:40.337Z,64.00
2022-11-24T15:21:14.273Z,64.30
2022-11-24T15:24:06.310Z,64.60
2022-11-24T15:26:40.199Z,64.90
2022-11-24T15:29:10.573Z,65.20
2022-11-24T15:31:39.091Z,65.50
2022-11-24T15:34:07.619Z,65.80
2022-11-24T15:36:37.090Z,66.00
2022-11-24T15:39:05.249Z,66.40
2022-11-24T15:41:34.703Z,66.70
2022-11-24T15:44:02.782Z,66.80
2022-11-24T15:46:37.817Z,67.20
2022-11-24T15:49:07.100Z,67.30
2022-11-24T15:51:38.977Z,67.60
2022-11-24T15:54:07.264Z,67.80
2022-11-24T15:56:36.791Z,68.10
2022-11-24T15:59:05.654Z,68.50
2022-11-24T16:01:35.082Z,68.80
2022-11-24T16:04:03.784Z,69.00
2022-11-24T16:06:32.049Z,69.10
2022-11-24T16:09:01.583Z,69.20
2022-11-24T16:11:29.768Z,69.50
2022-11-24T16:13:57.987Z,69.50
2022-11-24T16:16:26.234Z,69.60
2022-11-24T16:18:54.575Z,69.80
2022-11-24T16:21:23.246Z,70.20
2022-11-24T16:23:51.885Z,70.10
2022-11-24T16:26:21.461Z,70.20
2022-11-24T16:28:49.692Z,70.30
2022-11-24T16:31:19.050Z,70.50
2022-11-24T16:33:47.428Z,70.60
2022-11-24T16:36:15.809Z,70.90
2022-11-24T16:38:43.876Z,71.10
2022-11-24T16:41:13.053Z,71.20
2022-11-24T16:43:42.882Z,71.30
2022-11-24T16:46:19.741Z,71.50
2022-11-24T16:48:49.627Z,71.40
2022-11-24T16:51:19.031Z,71.80
2022-11-24T16:53:47.865Z,71.90
2022-11-24T16:56:16.580Z,72.10
2022-11-24T16:58:46.068Z,72.20
2022-11-24T17:13:06.873Z,72.50
2022-11-24T17:15:45.286Z,72.80
2022-11-24T17:18:30.919Z,72.90
2022-11-24T17:21:02.088Z,72.90
2022-11-24T17:23:34.218Z,73.10
2022-11-24T17:26:03.332Z,73.10
2022-11-24T17:28:31.657Z,73.20
2022-11-24T17:31:07.427Z,73.30
2022-11-24T17:33:35.716Z,73.40
2022-11-24T17:36:04.538Z,73.60
2022-11-24T17:38:32.742Z,73.80
2022-11-24T17:41:00.889Z,73.80
2022-11-24T17:43:29.061Z,73.90
2022-11-24T17:45:59.180Z,73.90
2022-11-24T17:48:29.548Z,74.20
2022-11-24T17:51:01.506Z,74.10
2022-11-24T17:53:30.079Z,74.10
2022-11-24T17:56:01.012Z,74.20
2022-11-24T17:58:29.354Z,74.30
2022-11-24T18:00:58.420Z,74.30
2022-11-24T18:03:31.525Z,74.40
2022-11-24T18:06:04.998Z,74.40
2022-11-24T18:08:34.064Z,74.60
2022-11-24T18:11:06.197Z,74.70
2022-11-24T18:13:55.833Z,74.80
2022-11-24T18:16:22.827Z,74.80
2022-11-24T18:19:07.373Z,74.70
2022-11-24T18:21:39.455Z,74.90
2022-11-24T18:24:08.444Z,75.00
2022-11-24T18:26:36.783Z,74.90
2022-11-24T18:29:05.018Z,75.00
2022-11-24T18:31:35.527Z,75.00
2022-11-24T18:34:06.520Z,75.10
2022-11-24T18:36:35.526Z,75.20
2022-11-24T18:39:04.529Z,75.20
2022-11-24T18:41:32.968Z,75.30
2022-11-24T18:44:02.433Z,75.40
2022-11-24T18:46:31.279Z,75.40
2022-11-24T18:49:00.255Z,75.40
2022-11-24T18:51:30.213Z,75.50
2022-11-24T18:53:59.264Z,75.50
2022-11-24T18:56:27.958Z,75.60
2022-11-24T18:58:59.199Z,75.70
2022-11-24T19:01:29.845Z,75.70
2022-11-24T19:04:00.075Z,75.70
2022-11-24T19:06:32.642Z,75.70
2022-11-24T19:09:02.556Z,75.80
2022-11-24T19:11:33.814Z,75.70
2022-11-24T19:14:02.524Z,75.70
2022-11-24T19:16:30.782Z,75.80
2022-11-24T19:19:00.542Z,75.80
2022-11-24T19:21:31.403Z,76.00
2022-11-24T19:24:04.447Z,76.10
2022-11-24T19:26:34.934Z,76.10
2022-11-24T19:29:03.561Z,76.20
2022-11-24T19:31:32.021Z,76.20
2022-11-24T19:34:00.263Z,76.30
2022-11-24T19:36:29.915Z,76.50
2022-11-24T19:38:59.599Z,76.60
2022-11-24T19:41:29.930Z,76.80
2022-11-24T19:43:58.793Z,76.80
2022-11-24T19:46:29.669Z,76.80
2022-11-24T19:49:00.045Z,76.70
2022-11-24T19:51:31.780Z,76.80
2022-11-24T19:54:00.241Z,76.70
2022-11-24T19:56:30.546Z,76.90
2022-11-24T19:58:58.891Z,76.80
2022-11-24T20:01:28.552Z,77.00
2022-11-24T20:03:59.362Z,76.90
2022-11-24T20:06:29.847Z,77.00
2022-11-24T20:09:00.489Z,77.00
2022-11-24T20:11:29.420Z,77.00
2022-11-24T20:13:58.313Z,77.10
2022-11-24T20:16:29.842Z,77.30
2022-11-24T20:18:59.879Z,77.30
2022-11-24T20:21:31.952Z,77.30
2022-11-24T20:24:02.165Z,77.30
2022-11-24T20:26:31.948Z,77.30
2022-11-24T20:29:01.414Z,77.40
2022-11-24T20:31:33.170Z,77.40
2022-11-24T20:34:02.149Z,77.40
2022-11-24T20:36:33.629Z,77.50
2022-11-24T20:39:04.762Z,77.60
2022-11-24T20:41:35.572Z,77.50
2022-11-24T20:44:07.229Z,77.60
2022-11-24T20:46:37.433Z,77.60
2022-11-24T20:49:06.565Z,77.60
2022-11-24T20:51:39.144Z,77.60
2022-11-24T20:54:08.696Z,77.50
2022-11-24T20:56:39.928Z,77.70
2022-11-24T20:59:09.070Z,77.70
2022-11-24T21:01:39.994Z,77.80
2022-11-24T21:04:10.470Z,77.90
2022-11-24T21:06:40.347Z,77.80
2022-11-24T21:09:09.826Z,77.90
2022-11-24T21:11:39.390Z,77.90
2022-11-24T21:14:08.195Z,77.80
2022-11-24T21:16:38.389Z,77.80
2022-11-24T21:19:09.093Z,77.90
2022-11-24T21:21:39.659Z,77.90
2022-11-24T21:24:11.696Z,77.90
2022-11-24T21:26:40.783Z,77.90
2022-11-24T21:29:09.572Z,77.80
2022-11-24T21:31:38.658Z,77.90
2022-11-24T21:34:08.314Z,77.90
2022-11-24T21:36:40.689Z,77.90
2022-11-24T21:39:13.296Z,78.00
2022-11-24T21:41:41.907Z,78.00
2022-11-24T21:44:11.548Z,77.90
2022-11-24T21:46:45.084Z,77.70
2022-11-24T21:49:17.554Z,77.80
2022-11-24T21:51:45.713Z,77.90
2022-11-24T21:54:15.173Z,77.90
2022-11-24T21:56:43.341Z,77.90
2022-11-24T21:59:11.671Z,77.80
2022-11-24T22:01:40.067Z,77.90
2022-11-24T22:04:08.276Z,77.90
2022-11-24T22:06:36.763Z,77.90
2022-11-24T22:09:04.935Z,77.90
2022-11-24T22:11:34.438Z,77.80
2022-11-24T22:14:02.559Z,77.90
2022-11-24T22:16:31.026Z,77.80
2022-11-24T22:19:01.667Z,77.80
2022-11-24T22:21:33.550Z,77.80
2022-11-24T22:24:02.032Z,77.80
2022-11-24T22:26:31.228Z,77.80
2022-11-24T22:29:00.771Z,77.80
2022-11-24T22:31:30.203Z,77.80
2022-11-24T22:33:59.714Z,77.70
2022-11-24T22:36:29.504Z,77.80
2022-11-24T22:38:59.315Z,77.80
2022-11-24T22:41:27.566Z,77.80
2022-11-24T22:43:55.926Z,77.80
2022-11-24T22:46:27.239Z,77.80
2022-11-24T22:48:56.238Z,77.90
2022-11-24T22:51:26.877Z,78.00
2022-11-24T22:53:57.148Z,78.00
2022-11-24T22:56:27.890Z,78.20
2022-11-24T22:58:56.079Z,78.20
2022-11-24T23:01:27.159Z,78.10
2022-11-24T23:03:55.595Z,78.10
2022-11-24T23:06:26.205Z,78.10
2022-11-24T23:08:54.736Z,78.20
2022-11-24T23:11:31.576Z,78.10
2022-11-24T23:14:01.454Z,78.10
2022-11-24T23:16:31.367Z,78.20
2022-11-24T23:18:59.579Z,78.10
2022-11-24T23:21:29.254Z,78.10
2022-11-24T23:23:59.050Z,78.00
2022-11-24T23:26:29.483Z,78.10
2022-11-24T23:28:57.646Z,78.20
2022-11-24T23:31:29.065Z,78.10
2022-11-24T23:33:59.573Z,78.30
2022-11-24T23:36:28.329Z,78.30
2022-11-24T23:38:56.719Z,78.10
2022-11-24T23:41:26.830Z,78.40
2022-11-24T23:43:56.151Z,78.40
2022-11-24T23:46:26.429Z,78.40
2022-11-24T23:48:55.850Z,78.50
2022-11-24T23:51:27.057Z,78.50
2022-11-24T23:53:55.588Z,78.50
2022-11-24T23:56:31.563Z,78.60
2022-11-24T23:59:00.251Z,78.50
